sensor_id;sensor_type;location;lat;lon;timestamp;pressure;altitude;pressure_sealevel;temperature;humidity
75815;BME280;64451;45.574;14.224;2023-04-07T00:00:01;97056.97;;;-3.28;95.84
75815;BME280;64451;45.574;14.224;2023-04-07T00:04:32;97053.06;;;-3.38;95.94
75815;BME280;64451;45.574;14.224;2023-04-07T00:06:32;97048.94;;;-3.06;96.52
75815;BME280;64451;45.574;14.224;2023-04-07T00:08:46;97048.63;;;-2.84;96.57
75815;BME280;64451;45.574;14.224;2023-04-07T00:11:10;97050.19;;;-3.02;96.32
75815;BME280;64451;45.574;14.224;2023-04-07T00:13:19;97042.63;;;-3.60;95.77
75815;BME280;64451;45.574;14.224;2023-04-07T00:15:38;97046.81;;;-4.00;95.71
75815;BME280;64451;45.574;14.224;2023-04-07T00:18:03;97046.88;;;-4.15;95.73
75815;BME280;64451;45.574;14.224;2023-04-07T00:20:04;97036.91;;;-4.26;95.77
75815;BME280;64451;45.574;14.224;2023-04-07T00:22:10;97049.50;;;-4.21;96.19
75815;BME280;64451;45.574;14.224;2023-04-07T00:28:48;97033.59;;;-4.13;96.76
75815;BME280;64451;45.574;14.224;2023-04-07T00:33:16;97038.03;;;-3.51;95.76
75815;BME280;64451;45.574;14.224;2023-04-07T00:35:19;97034.28;;;-3.29;94.46
75815;BME280;64451;45.574;14.224;2023-04-07T00:37:22;97039.97;;;-3.25;93.50
75815;BME280;64451;45.574;14.224;2023-04-07T00:39:46;97038.34;;;-3.26;93.65
75815;BME280;64451;45.574;14.224;2023-04-07T00:41:55;97037.44;;;-3.47;93.79
75815;BME280;64451;45.574;14.224;2023-04-07T00:44:07;97038.66;;;-3.43;94.13
75815;BME280;64451;45.574;14.224;2023-04-07T00:46:21;97030.13;;;-3.86;94.95
75815;BME280;64451;45.574;14.224;2023-04-07T00:50:55;97030.56;;;-4.10;95.41
75815;BME280;64451;45.574;14.224;2023-04-07T00:53:27;97036.91;;;-4.26;96.03
75815;BME280;64451;45.574;14.224;2023-04-07T00:55:34;97032.97;;;-4.37;96.80
75815;BME280;64451;45.574;14.224;2023-04-07T00:57:49;97027.28;;;-4.40;96.98
75815;BME280;64451;45.574;14.224;2023-04-07T00:59:56;97032.34;;;-4.39;96.77
75815;BME280;64451;45.574;14.224;2023-04-07T01:04:34;97027.25;;;-3.91;97.18
75815;BME280;64451;45.574;14.224;2023-04-07T01:09:36;97031.59;;;-3.77;96.33
75815;BME280;64451;45.574;14.224;2023-04-07T01:17:04;97026.88;;;-4.16;96.54
75815;BME280;64451;45.574;14.224;2023-04-07T01:26:36;97030.63;;;-3.69;96.33
75815;BME280;64451;45.574;14.224;2023-04-07T01:36:17;97030.44;;;-4.24;96.43
75815;BME280;64451;45.574;14.224;2023-04-07T01:38:21;97034.31;;;-4.69;96.76
75815;BME280;64451;45.574;14.224;2023-04-07T01:40:32;97026.72;;;-4.57;96.75
75815;BME280;64451;45.574;14.224;2023-04-07T01:43:07;97032.56;;;-4.62;96.43
75815;BME280;64451;45.574;14.224;2023-04-07T01:45:34;97028.78;;;-4.74;96.48
75815;BME280;64451;45.574;14.224;2023-04-07T01:47:50;97031.22;;;-4.51;96.99
75815;BME280;64451;45.574;14.224;2023-04-07T01:53:30;97030.41;;;-4.52;96.29
75815;BME280;64451;45.574;14.224;2023-04-07T01:55:31;97025.84;;;-4.43;96.55
75815;BME280;64451;45.574;14.224;2023-04-07T01:57:43;97022.34;;;-4.29;97.36
75815;BME280;64451;45.574;14.224;2023-04-07T01:59:44;97025.72;;;-4.35;97.35
75815;BME280;64451;45.574;14.224;2023-04-07T02:02:18;97026.47;;;-4.19;97.00
75815;BME280;64451;45.574;14.224;2023-04-07T02:10:24;97013.47;;;-4.49;97.49
75815;BME280;64451;45.574;14.224;2023-04-07T02:12:41;97012.28;;;-4.46;97.55
75815;BME280;64451;45.574;14.224;2023-04-07T02:14:59;97014.94;;;-4.18;96.06
75815;BME280;64451;45.574;14.224;2023-04-07T02:17:18;96999.06;;;-4.32;95.66
75815;BME280;64451;45.574;14.224;2023-04-07T02:19:37;97008.66;;;-4.67;95.91
75815;BME280;64451;45.574;14.224;2023-04-07T02:21:47;97011.91;;;-5.22;96.17
75815;BME280;64451;45.574;14.224;2023-04-07T02:26:58;97014.59;;;-5.52;97.71
75815;BME280;64451;45.574;14.224;2023-04-07T02:29:16;97012.88;;;-5.45;98.03
75815;BME280;64451;45.574;14.224;2023-04-07T02:31:34;97013.50;;;-5.43;97.89
75815;BME280;64451;45.574;14.224;2023-04-07T02:33:51;97013.66;;;-5.29;97.92
75815;BME280;64451;45.574;14.224;2023-04-07T02:36:36;97010.25;;;-5.09;98.50
75815;BME280;64451;45.574;14.224;2023-04-07T02:38:52;97011.44;;;-5.11;98.30
75815;BME280;64451;45.574;14.224;2023-04-07T02:44:17;97007.28;;;-4.84;99.42
75815;BME280;64451;45.574;14.224;2023-04-07T02:46:36;97008.72;;;-4.82;99.58
75815;BME280;64451;45.574;14.224;2023-04-07T02:48:52;97010.78;;;-4.98;99.75
75815;BME280;64451;45.574;14.224;2023-04-07T02:51:10;97009.50;;;-4.88;99.23
75815;BME280;64451;45.574;14.224;2023-04-07T02:59:18;97007.66;;;-4.87;96.71
75815;BME280;64451;45.574;14.224;2023-04-07T03:01:18;96998.16;;;-5.10;97.17
75815;BME280;64451;45.574;14.224;2023-04-07T03:03:18;97000.00;;;-5.25;97.60
75815;BME280;64451;45.574;14.224;2023-04-07T03:05:25;96993.63;;;-5.16;97.94
75815;BME280;64451;45.574;14.224;2023-04-07T03:10:50;96985.47;;;-5.42;97.61
75815;BME280;64451;45.574;14.224;2023-04-07T03:13:09;96993.53;;;-5.44;98.06
75815;BME280;64451;45.574;14.224;2023-04-07T03:15:27;96995.31;;;-5.29;98.25
75815;BME280;64451;45.574;14.224;2023-04-07T03:20:28;96996.03;;;-5.35;98.60
75815;BME280;64451;45.574;14.224;2023-04-07T03:25:04;96990.06;;;-5.29;97.67
75815;BME280;64451;45.574;14.224;2023-04-07T03:30:03;96992.31;;;-5.05;98.10
75815;BME280;64451;45.574;14.224;2023-04-07T03:32:22;97002.84;;;-4.84;97.17
75815;BME280;64451;45.574;14.224;2023-04-07T03:37:47;96994.22;;;-4.77;98.26
75815;BME280;64451;45.574;14.224;2023-04-07T03:40:05;96993.84;;;-4.53;98.21
75815;BME280;64451;45.574;14.224;2023-04-07T03:45:28;96991.19;;;-4.32;98.26
75815;BME280;64451;45.574;14.224;2023-04-07T03:47:46;96999.50;;;-4.28;98.09
75815;BME280;64451;45.574;14.224;2023-04-07T03:50:28;97000.94;;;-4.26;98.54
75815;BME280;64451;45.574;14.224;2023-04-07T03:55:51;97006.09;;;-5.03;97.69
75815;BME280;64451;45.574;14.224;2023-04-07T03:58:10;97010.56;;;-5.18;97.61
75815;BME280;64451;45.574;14.224;2023-04-07T04:00:29;97003.09;;;-5.36;97.40
75815;BME280;64451;45.574;14.224;2023-04-07T04:05:28;97003.66;;;-5.55;97.69
75815;BME280;64451;45.574;14.224;2023-04-07T04:07:47;97005.75;;;-5.51;97.23
75815;BME280;64451;45.574;14.224;2023-04-07T04:10:06;96996.06;;;-5.65;98.03
75815;BME280;64451;45.574;14.224;2023-04-07T04:12:25;96999.16;;;-5.76;98.32
75815;BME280;64451;45.574;14.224;2023-04-07T04:14:41;97002.25;;;-5.87;98.85
75815;BME280;64451;45.574;14.224;2023-04-07T04:16:59;96994.13;;;-6.07;98.58
75815;BME280;64451;45.574;14.224;2023-04-07T04:19:18;96995.13;;;-6.46;98.50
75815;BME280;64451;45.574;14.224;2023-04-07T04:21:37;97000.72;;;-6.49;98.16
75815;BME280;64451;45.574;14.224;2023-04-07T04:23:55;96995.25;;;-6.39;98.63
75815;BME280;64451;45.574;14.224;2023-04-07T04:26:14;97003.31;;;-6.26;98.77
75815;BME280;64451;45.574;14.224;2023-04-07T04:28:33;97001.50;;;-6.26;99.18
75815;BME280;64451;45.574;14.224;2023-04-07T04:30:52;97004.13;;;-6.26;98.58
75815;BME280;64451;45.574;14.224;2023-04-07T04:33:34;96996.81;;;-6.15;98.94
75815;BME280;64451;45.574;14.224;2023-04-07T04:35:52;97004.78;;;-6.09;99.04
75815;BME280;64451;45.574;14.224;2023-04-07T04:38:11;97009.66;;;-5.91;98.92
75815;BME280;64451;45.574;14.224;2023-04-07T04:40:30;97007.22;;;-5.92;98.95
75815;BME280;64451;45.574;14.224;2023-04-07T04:42:49;97015.72;;;-5.90;99.58
75815;BME280;64451;45.574;14.224;2023-04-07T04:45:08;97018.75;;;-5.72;99.58
75815;BME280;64451;45.574;14.224;2023-04-07T04:47:24;97008.97;;;-5.49;99.50
75815;BME280;64451;45.574;14.224;2023-04-07T04:49:43;97004.13;;;-5.52;99.75
75815;BME280;64451;45.574;14.224;2023-04-07T04:52:01;97001.59;;;-5.60;99.67
75815;BME280;64451;45.574;14.224;2023-04-07T04:54:20;97013.41;;;-5.49;99.70
75815;BME280;64451;45.574;14.224;2023-04-07T04:56:40;97017.22;;;-5.37;99.39
75815;BME280;64451;45.574;14.224;2023-04-07T04:58:57;97025.56;;;-5.12;97.94
75815;BME280;64451;45.574;14.224;2023-04-07T05:01:15;97011.22;;;-5.31;98.00
75815;BME280;64451;45.574;14.224;2023-04-07T05:03:34;97018.28;;;-5.46;98.64
75815;BME280;64451;45.574;14.224;2023-04-07T05:05:53;97030.16;;;-5.14;98.36
75815;BME280;64451;45.574;14.224;2023-04-07T05:08:09;97017.34;;;-4.66;98.48
75815;BME280;64451;45.574;14.224;2023-04-07T05:10:46;97023.28;;;-4.36;97.94
75815;BME280;64451;45.574;14.224;2023-04-07T05:13:05;97032.75;;;-3.86;97.97
75815;BME280;64451;45.574;14.224;2023-04-07T05:15:24;97016.03;;;-3.37;97.14
75815;BME280;64451;45.574;14.224;2023-04-07T05:17:43;97018.44;;;-2.94;94.62
75815;BME280;64451;45.574;14.224;2023-04-07T05:20:03;97021.47;;;-2.91;91.15
75815;BME280;64451;45.574;14.224;2023-04-07T05:22:18;97014.75;;;-3.00;88.46
75815;BME280;64451;45.574;14.224;2023-04-07T05:24:37;97013.22;;;-2.68;86.43
75815;BME280;64451;45.574;14.224;2023-04-07T05:26:56;97011.22;;;-2.52;85.75
75815;BME280;64451;45.574;14.224;2023-04-07T05:29:15;97015.28;;;-2.30;85.72
75815;BME280;64451;45.574;14.224;2023-04-07T05:31:33;97007.59;;;-1.99;85.13
75815;BME280;64451;45.574;14.224;2023-04-07T05:33:51;97016.09;;;-1.12;83.88
75815;BME280;64451;45.574;14.224;2023-04-07T05:40:46;97014.28;;;-1.18;81.18
75815;BME280;64451;45.574;14.224;2023-04-07T05:50:23;97013.81;;;-0.32;78.51
75815;BME280;64451;45.574;14.224;2023-04-07T05:52:51;97013.13;;;0.04;79.29
75815;BME280;64451;45.574;14.224;2023-04-07T05:54:51;97011.88;;;0.87;76.43
75815;BME280;64451;45.574;14.224;2023-04-07T05:56:58;97005.81;;;1.16;75.07
75815;BME280;64451;45.574;14.224;2023-04-07T06:01:55;97004.88;;;0.74;75.09
75815;BME280;64451;45.574;14.224;2023-04-07T06:04:14;97007.66;;;-0.01;79.35
75815;BME280;64451;45.574;14.224;2023-04-07T06:06:30;97019.41;;;-0.47;82.56
75815;BME280;64451;45.574;14.224;2023-04-07T06:08:30;97013.69;;;0.49;80.99
75815;BME280;64451;45.574;14.224;2023-04-07T06:10:46;97005.31;;;0.89;78.23
75815;BME280;64451;45.574;14.224;2023-04-07T06:13:04;97001.81;;;1.67;74.73
75815;BME280;64451;45.574;14.224;2023-04-07T06:15:23;97009.88;;;1.00;74.70
75815;BME280;64451;45.574;14.224;2023-04-07T06:26:52;97000.69;;;4.49;64.35
75815;BME280;64451;45.574;14.224;2023-04-07T06:29:09;96990.72;;;4.23;62.53
75815;BME280;64451;45.574;14.224;2023-04-07T06:31:25;96997.31;;;4.20;63.30
75815;BME280;64451;45.574;14.224;2023-04-07T06:33:45;97006.41;;;3.00;68.36
75815;BME280;64451;45.574;14.224;2023-04-07T06:38:43;96994.59;;;4.15;65.39
75815;BME280;64451;45.574;14.224;2023-04-07T06:41:02;96986.78;;;5.08;61.33
75815;BME280;64451;45.574;14.224;2023-04-07T06:43:21;96989.31;;;5.20;59.56
75815;BME280;64451;45.574;14.224;2023-04-07T06:45:38;96983.41;;;4.52;61.45
75815;BME280;64451;45.574;14.224;2023-04-07T06:47:57;96978.88;;;3.35;68.57
75815;BME280;64451;45.574;14.224;2023-04-07T06:50:16;96987.41;;;4.16;64.10
75815;BME280;64451;45.574;14.224;2023-04-07T06:52:34;96988.19;;;2.80;69.90
75815;BME280;64451;45.574;14.224;2023-04-07T06:57:35;96984.91;;;2.38;71.68
75815;BME280;64451;45.574;14.224;2023-04-07T06:59:54;96997.13;;;1.09;76.35
75815;BME280;64451;45.574;14.224;2023-04-07T07:02:10;96979.41;;;1.51;75.85
75815;BME280;64451;45.574;14.224;2023-04-07T07:06:47;96996.22;;;1.45;74.19
75815;BME280;64451;45.574;14.224;2023-04-07T07:09:05;96982.69;;;1.77;73.50
75815;BME280;64451;45.574;14.224;2023-04-07T07:11:24;96984.78;;;1.86;73.32
75815;BME280;64451;45.574;14.224;2023-04-07T07:13:43;96980.88;;;1.47;76.04
75815;BME280;64451;45.574;14.224;2023-04-07T07:16:02;96990.72;;;1.58;75.74
75815;BME280;64451;45.574;14.224;2023-04-07T07:18:21;96989.25;;;1.74;78.03
75815;BME280;64451;45.574;14.224;2023-04-07T07:20:40;96985.34;;;1.88;76.92
75815;BME280;64451;45.574;14.224;2023-04-07T07:22:59;96986.66;;;2.33;74.82
75815;BME280;64451;45.574;14.224;2023-04-07T07:25:18;96981.00;;;2.81;72.35
75815;BME280;64451;45.574;14.224;2023-04-07T07:30:38;96987.41;;;4.16;71.28
75815;BME280;64451;45.574;14.224;2023-04-07T07:33:14;96978.47;;;4.83;66.25
75815;BME280;64451;45.574;14.224;2023-04-07T07:35:28;96982.91;;;5.21;65.06
75815;BME280;64451;45.574;14.224;2023-04-07T07:37:40;96976.50;;;6.35;58.43
75815;BME280;64451;45.574;14.224;2023-04-07T07:40:18;96975.13;;;7.47;54.56
75815;BME280;64451;45.574;14.224;2023-04-07T07:44:52;96963.38;;;8.35;54.64
75815;BME280;64451;45.574;14.224;2023-04-07T07:49:53;96971.41;;;9.30;54.25
75815;BME280;64451;45.574;14.224;2023-04-07T07:51:53;96970.09;;;9.22;50.58
75815;BME280;64451;45.574;14.224;2023-04-07T07:54:10;96956.47;;;9.97;52.78
75815;BME280;64451;45.574;14.224;2023-04-07T07:56:17;96959.25;;;10.50;46.89
75815;BME280;64451;45.574;14.224;2023-04-07T07:58:34;96957.19;;;10.42;47.48
75815;BME280;64451;45.574;14.224;2023-04-07T08:00:49;96953.28;;;10.29;50.41
75815;BME280;64451;45.574;14.224;2023-04-07T08:03:05;96953.34;;;9.46;50.38
75815;BME280;64451;45.574;14.224;2023-04-07T08:05:20;96939.53;;;10.31;48.19
75815;BME280;64451;45.574;14.224;2023-04-07T08:07:37;96947.13;;;9.90;54.47
75815;BME280;64451;45.574;14.224;2023-04-07T08:09:56;96945.72;;;10.84;47.01
75815;BME280;64451;45.574;14.224;2023-04-07T08:12:14;96952.25;;;10.20;50.59
75815;BME280;64451;45.574;14.224;2023-04-07T08:14:33;96935.44;;;10.67;49.26
75815;BME280;64451;45.574;14.224;2023-04-07T08:16:52;96939.75;;;11.30;45.37
75815;BME280;64451;45.574;14.224;2023-04-07T08:19:08;96941.22;;;10.51;51.36
75815;BME280;64451;45.574;14.224;2023-04-07T08:21:27;96937.19;;;10.53;48.72
75815;BME280;64451;45.574;14.224;2023-04-07T08:23:46;96949.44;;;11.12;46.29
75815;BME280;64451;45.574;14.224;2023-04-07T08:26:05;96943.63;;;11.00;50.91
75815;BME280;64451;45.574;14.224;2023-04-07T08:28:25;96936.94;;;11.78;43.90
75815;BME280;64451;45.574;14.224;2023-04-07T08:30:42;96943.22;;;11.92;43.45
75815;BME280;64451;45.574;14.224;2023-04-07T08:33:05;96934.91;;;11.89;42.00
75815;BME280;64451;45.574;14.224;2023-04-07T08:35:42;96932.13;;;11.94;42.17
75815;BME280;64451;45.574;14.224;2023-04-07T08:38:01;96925.06;;;11.79;43.97
75815;BME280;64451;45.574;14.224;2023-04-07T08:40:21;96933.38;;;11.82;41.33
75815;BME280;64451;45.574;14.224;2023-04-07T08:51:06;96921.47;;;12.49;38.42
75815;BME280;64451;45.574;14.224;2023-04-07T08:53:27;96913.19;;;12.59;37.55
75815;BME280;64451;45.574;14.224;2023-04-07T08:58:50;96905.59;;;12.88;40.36
75815;BME280;64451;45.574;14.224;2023-04-07T09:01:29;96897.88;;;12.82;37.31
75815;BME280;64451;45.574;14.224;2023-04-07T09:06:54;96898.63;;;13.73;36.20
75815;BME280;64451;45.574;14.224;2023-04-07T09:09:13;96896.56;;;13.34;35.20
75815;BME280;64451;45.574;14.224;2023-04-07T09:11:29;96893.84;;;13.34;39.73
75815;BME280;64451;45.574;14.224;2023-04-07T09:16:29;96885.69;;;13.84;38.74
75815;BME280;64451;45.574;14.224;2023-04-07T09:24:36;96888.16;;;13.36;38.30
75815;BME280;64451;45.574;14.224;2023-04-07T09:29:35;96883.56;;;14.57;34.08
75815;BME280;64451;45.574;14.224;2023-04-07T09:34:42;96872.81;;;14.43;36.80
75815;BME280;64451;45.574;14.224;2023-04-07T09:36:59;96869.34;;;13.98;35.98
75815;BME280;64451;45.574;14.224;2023-04-07T09:39:07;96873.84;;;15.13;34.35
75815;BME280;64451;45.574;14.224;2023-04-07T09:43:32;96861.41;;;14.24;37.19
75815;BME280;64451;45.574;14.224;2023-04-07T09:46:12;96852.41;;;13.84;35.29
75815;BME280;64451;45.574;14.224;2023-04-07T09:48:31;96856.72;;;13.12;35.83
75815;BME280;64451;45.574;14.224;2023-04-07T09:50:50;96842.50;;;14.32;37.61
75815;BME280;64451;45.574;14.224;2023-04-07T09:55:10;96839.81;;;14.81;35.68
75815;BME280;64451;45.574;14.224;2023-04-07T10:01:50;96829.34;;;15.14;33.67
75815;BME280;64451;45.574;14.224;2023-04-07T10:09:08;96829.06;;;15.07;33.00
75815;BME280;64451;45.574;14.224;2023-04-07T10:14:14;96822.69;;;15.81;32.12
75815;BME280;64451;45.574;14.224;2023-04-07T10:16:53;96821.06;;;15.36;30.79
75815;BME280;64451;45.574;14.224;2023-04-07T10:19:12;96808.03;;;15.64;33.06
75815;BME280;64451;45.574;14.224;2023-04-07T10:21:53;96799.63;;;16.04;31.97
75815;BME280;64451;45.574;14.224;2023-04-07T10:31:37;96798.88;;;14.74;32.96
75815;BME280;64451;45.574;14.224;2023-04-07T10:41:39;96790.50;;;14.13;31.56
75815;BME280;64451;45.574;14.224;2023-04-07T10:59:13;96780.03;;;16.66;27.98
75815;BME280;64451;45.574;14.224;2023-04-07T11:26:40;96774.66;;;15.29;30.02
75815;BME280;64451;45.574;14.224;2023-04-07T11:29:04;96762.41;;;13.92;30.59
75815;BME280;64451;45.574;14.224;2023-04-07T11:31:24;96768.78;;;13.96;30.42
75815;BME280;64451;45.574;14.224;2023-04-07T11:34:05;96772.13;;;14.32;31.12
75815;BME280;64451;45.574;14.224;2023-04-07T11:44:07;96769.44;;;12.12;38.64
75815;BME280;64451;45.574;14.224;2023-04-07T11:46:23;96756.28;;;11.78;39.09
75815;BME280;64451;45.574;14.224;2023-04-07T11:52:10;96760.13;;;11.91;39.79
75815;BME280;64451;45.574;14.224;2023-04-07T11:57:10;96758.81;;;11.88;38.97
75815;BME280;64451;45.574;14.224;2023-04-07T12:02:33;96750.75;;;11.88;39.67
75815;BME280;64451;45.574;14.224;2023-04-07T12:05:13;96760.00;;;11.82;38.82
75815;BME280;64451;45.574;14.224;2023-04-07T12:14:31;96756.25;;;12.38;37.81
75815;BME280;64451;45.574;14.224;2023-04-07T12:16:41;96745.56;;;12.83;37.48
75815;BME280;64451;45.574;14.224;2023-04-07T12:18:48;96746.75;;;13.13;37.64
75815;BME280;64451;45.574;14.224;2023-04-07T12:25:07;96747.69;;;12.72;40.14
75815;BME280;64451;45.574;14.224;2023-04-07T12:27:26;96748.84;;;12.44;39.79
75815;BME280;64451;45.574;14.224;2023-04-07T12:29:43;96749.75;;;12.25;41.20
75815;BME280;64451;45.574;14.224;2023-04-07T12:32:03;96742.66;;;12.16;41.93
75815;BME280;64451;45.574;14.224;2023-04-07T12:34:18;96742.78;;;11.64;39.16
75815;BME280;64451;45.574;14.224;2023-04-07T12:36:37;96745.34;;;11.88;40.68
75815;BME280;64451;45.574;14.224;2023-04-07T12:38:56;96753.25;;;11.66;41.36
75815;BME280;64451;45.574;14.224;2023-04-07T12:43:57;96749.22;;;11.49;42.21
75815;BME280;64451;45.574;14.224;2023-04-07T12:46:05;96745.03;;;11.43;42.99
75815;BME280;64451;45.574;14.224;2023-04-07T12:48:12;96736.84;;;11.48;43.47
75815;BME280;64451;45.574;14.224;2023-04-07T12:50:15;96736.63;;;11.31;41.16
75815;BME280;64451;45.574;14.224;2023-04-07T12:52:31;96738.97;;;11.19;42.17
75815;BME280;64451;45.574;14.224;2023-04-07T12:54:32;96738.69;;;11.20;41.62
75815;BME280;64451;45.574;14.224;2023-04-07T12:59:06;96735.66;;;10.89;42.15
75815;BME280;64451;45.574;14.224;2023-04-07T13:01:08;96739.94;;;10.90;44.23
75815;BME280;64451;45.574;14.224;2023-04-07T13:03:18;96735.97;;;10.69;41.51
75815;BME280;64451;45.574;14.224;2023-04-07T13:05:37;96738.56;;;10.74;43.36
75815;BME280;64451;45.574;14.224;2023-04-07T13:07:56;96735.72;;;11.03;41.45
75815;BME280;64451;45.574;14.224;2023-04-07T13:12:33;96739.47;;;10.69;42.57
75815;BME280;64451;45.574;14.224;2023-04-07T13:20:06;96729.63;;;10.79;41.65
75815;BME280;64451;45.574;14.224;2023-04-07T13:22:09;96737.25;;;10.90;41.00
75815;BME280;64451;45.574;14.224;2023-04-07T13:24:18;96729.91;;;10.96;41.74
75815;BME280;64451;45.574;14.224;2023-04-07T13:26:23;96730.63;;;11.02;43.72
75815;BME280;64451;45.574;14.224;2023-04-07T13:28:42;96717.56;;;11.09;40.71
75815;BME280;64451;45.574;14.224;2023-04-07T13:33:42;96726.31;;;10.68;40.08
75815;BME280;64451;45.574;14.224;2023-04-07T13:36:01;96727.97;;;10.64;43.52
75815;BME280;64451;45.574;14.224;2023-04-07T13:38:19;96725.31;;;10.96;41.65
75815;BME280;64451;45.574;14.224;2023-04-07T13:41:01;96723.16;;;10.80;41.04
75815;BME280;64451;45.574;14.224;2023-04-07T13:43:11;96733.63;;;10.62;41.27
75815;BME280;64451;45.574;14.224;2023-04-07T13:45:15;96726.66;;;10.61;41.33
75815;BME280;64451;45.574;14.224;2023-04-07T13:50:15;96729.84;;;10.63;39.41
75815;BME280;64451;45.574;14.224;2023-04-07T13:55:15;96731.19;;;10.42;41.57
75815;BME280;64451;45.574;14.224;2023-04-07T13:57:34;96740.44;;;10.36;41.96
75815;BME280;64451;45.574;14.224;2023-04-07T13:59:54;96738.38;;;10.52;41.60
75815;BME280;64451;45.574;14.224;2023-04-07T14:01:54;96732.59;;;10.39;44.66
75815;BME280;64451;45.574;14.224;2023-04-07T14:04:01;96744.75;;;10.37;43.85
75815;BME280;64451;45.574;14.224;2023-04-07T14:06:20;96744.59;;;10.47;42.69
75815;BME280;64451;45.574;14.224;2023-04-07T14:08:39;96747.59;;;10.46;44.44
75815;BME280;64451;45.574;14.224;2023-04-07T14:10:54;96750.03;;;10.42;45.53
75815;BME280;64451;45.574;14.224;2023-04-07T14:15:34;96745.41;;;10.48;44.60
75815;BME280;64451;45.574;14.224;2023-04-07T14:22:42;96742.69;;;10.29;48.31
75815;BME280;64451;45.574;14.224;2023-04-07T14:25:02;96742.03;;;10.37;48.00
75815;BME280;64451;45.574;14.224;2023-04-07T14:27:21;96742.72;;;10.48;44.17
75815;BME280;64451;45.574;14.224;2023-04-07T14:29:40;96742.19;;;10.46;44.11
75815;BME280;64451;45.574;14.224;2023-04-07T14:31:59;96740.91;;;10.62;46.61
75815;BME280;64451;45.574;14.224;2023-04-07T14:34:05;96732.53;;;10.63;50.16
75815;BME280;64451;45.574;14.224;2023-04-07T14:36:23;96735.44;;;10.67;46.82
75815;BME280;64451;45.574;14.224;2023-04-07T14:38:44;96734.56;;;10.72;47.36
75815;BME280;64451;45.574;14.224;2023-04-07T14:40:59;96733.91;;;10.42;48.70
75815;BME280;64451;45.574;14.224;2023-04-07T14:43:17;96735.38;;;10.72;45.55
75815;BME280;64451;45.574;14.224;2023-04-07T14:45:33;96744.22;;;10.35;46.52
75815;BME280;64451;45.574;14.224;2023-04-07T14:47:52;96735.41;;;10.29;47.43
75815;BME280;64451;45.574;14.224;2023-04-07T14:50:31;96741.31;;;10.31;47.83
75815;BME280;64451;45.574;14.224;2023-04-07T14:52:47;96736.50;;;10.04;47.98
75815;BME280;64451;45.574;14.224;2023-04-07T14:55:03;96731.81;;;9.91;49.94
75815;BME280;64451;45.574;14.224;2023-04-07T14:57:23;96739.66;;;10.11;48.24
75815;BME280;64451;45.574;14.224;2023-04-07T15:06:49;96731.34;;;9.84;49.90
75815;BME280;64451;45.574;14.224;2023-04-07T15:09:08;96735.00;;;9.69;50.64
75815;BME280;64451;45.574;14.224;2023-04-07T15:11:24;96741.91;;;9.75;51.38
75815;BME280;64451;45.574;14.224;2023-04-07T15:13:43;96745.94;;;9.78;50.99
75815;BME280;64451;45.574;14.224;2023-04-07T15:16:21;96746.84;;;9.68;53.09
75815;BME280;64451;45.574;14.224;2023-04-07T15:18:41;96742.09;;;9.60;53.45
75815;BME280;64451;45.574;14.224;2023-04-07T15:20:56;96744.91;;;9.45;55.50
75815;BME280;64451;45.574;14.224;2023-04-07T15:23:15;96747.00;;;9.53;52.85
75815;BME280;64451;45.574;14.224;2023-04-07T15:25:37;96750.94;;;9.61;52.75
75815;BME280;64451;45.574;14.224;2023-04-07T15:28:19;96748.13;;;9.47;53.53
75815;BME280;64451;45.574;14.224;2023-04-07T15:30:40;96749.38;;;9.54;53.80
75815;BME280;64451;45.574;14.224;2023-04-07T15:35:37;96748.53;;;9.59;52.21
75815;BME280;64451;45.574;14.224;2023-04-07T15:37:55;96754.06;;;9.68;52.42
75815;BME280;64451;45.574;14.224;2023-04-07T15:40:14;96748.94;;;9.71;52.90
75815;BME280;64451;45.574;14.224;2023-04-07T15:42:24;96748.44;;;9.69;50.87
75815;BME280;64451;45.574;14.224;2023-04-07T15:44:40;96747.06;;;9.72;53.18
75815;BME280;64451;45.574;14.224;2023-04-07T15:46:59;96755.47;;;9.65;51.25
75815;BME280;64451;45.574;14.224;2023-04-07T15:49:17;96743.16;;;9.59;53.67
75815;BME280;64451;45.574;14.224;2023-04-07T15:51:36;96742.97;;;9.50;53.21
75815;BME280;64451;45.574;14.224;2023-04-07T15:53:55;96745.03;;;9.58;53.60
75815;BME280;64451;45.574;14.224;2023-04-07T15:56:13;96752.41;;;9.48;55.47
75815;BME280;64451;45.574;14.224;2023-04-07T15:58:32;96746.50;;;9.46;53.72
75815;BME280;64451;45.574;14.224;2023-04-07T16:05:28;96746.38;;;9.61;52.84
75815;BME280;64451;45.574;14.224;2023-04-07T16:10:08;96744.81;;;9.55;52.11
75815;BME280;64451;45.574;14.224;2023-04-07T16:12:22;96743.75;;;9.51;51.47
75815;BME280;64451;45.574;14.224;2023-04-07T16:14:41;96741.66;;;9.48;52.58
75815;BME280;64451;45.574;14.224;2023-04-07T16:17:00;96736.91;;;9.40;52.47
75815;BME280;64451;45.574;14.224;2023-04-07T16:23:55;96735.94;;;9.25;55.58
75815;BME280;64451;45.574;14.224;2023-04-07T16:26:11;96729.47;;;8.97;57.86
75815;BME280;64451;45.574;14.224;2023-04-07T16:28:29;96727.19;;;8.76;59.65
75815;BME280;64451;45.574;14.224;2023-04-07T16:30:48;96727.84;;;8.62;60.62
75815;BME280;64451;45.574;14.224;2023-04-07T16:33:09;96742.94;;;8.48;62.26
75815;BME280;64451;45.574;14.224;2023-04-07T16:35:27;96740.00;;;8.34;61.81
75815;BME280;64451;45.574;14.224;2023-04-07T16:37:45;96744.31;;;8.35;59.86
75815;BME280;64451;45.574;14.224;2023-04-07T16:40:04;96740.06;;;8.19;63.28
75815;BME280;64451;45.574;14.224;2023-04-07T16:42:24;96747.59;;;8.17;62.46
75815;BME280;64451;45.574;14.224;2023-04-07T16:44:43;96743.34;;;8.11;62.34
75815;BME280;64451;45.574;14.224;2023-04-07T16:47:02;96746.28;;;8.14;62.69
75815;BME280;64451;45.574;14.224;2023-04-07T16:54:03;96756.25;;;7.99;61.24
75815;BME280;64451;45.574;14.224;2023-04-07T16:56:23;96754.41;;;7.89;61.73
75815;BME280;64451;45.574;14.224;2023-04-07T16:58:52;96750.66;;;7.85;62.44
75815;BME280;64451;45.574;14.224;2023-04-07T17:01:01;96752.84;;;7.68;63.06
75815;BME280;64451;45.574;14.224;2023-04-07T17:03:18;96754.50;;;7.53;63.85